Time;durP1;ratioP1;P1;durP2;ratioP2;P2;SDS_P1;SDS_P2;PMS_P1;PMS_P2;Temp;Humidity;BMP_temperature;BMP_pressure;BME280_temperature;BME280_humidity;BME280_pressure;Samples;Min_cycle;Max_cycle;Signal;HPM_P1;HPM_P2
2021/12/09 00:00:12;;;;;;;6.30;3.40;;;4.50;82.40;;;;;;4991899;28;20457;-85
2021/12/09 00:02:38;;;;;;;5.03;3.33;;;4.50;83.00;;;;;;4977411;28;20477;-85
2021/12/09 00:05:05;;;;;;;3.03;2.83;;;4.50;82.60;;;;;;4974504;28;21050;-85
2021/12/09 00:07:30;;;;;;;4.20;2.93;;;4.40;81.30;;;;;;4977377;28;20460;-85
2021/12/09 00:09:56;;;;;;;4.50;3.17;;;4.30;81.00;;;;;;4974929;28;20795;-85
2021/12/09 00:12:23;;;;;;;4.73;3.30;;;4.30;81.20;;;;;;4976435;28;20323;-85
2021/12/09 00:14:49;;;;;;;4.57;2.90;;;4.20;81.20;;;;;;4974968;28;20904;-85
2021/12/09 00:17:15;;;;;;;6.87;3.33;;;4.10;82.20;;;;;;4976852;28;20574;-84
2021/12/09 00:19:40;;;;;;;3.23;2.93;;;4.10;81.10;;;;;;4973992;28;20225;-84
2021/12/09 00:22:09;;;;;;;3.63;3.17;;;4.00;82.90;;;;;;4976367;28;20739;-84
2021/12/09 00:24:35;;;;;;;3.23;2.80;;;4.00;81.40;;;;;;4973115;28;20490;-83
2021/12/09 00:27:01;;;;;;;2.90;2.63;;;4.00;83.30;;;;;;4977149;28;20873;-84
2021/12/09 00:29:27;;;;;;;4.93;3.50;;;3.90;83.00;;;;;;4973962;28;20234;-84
2021/12/09 00:31:52;;;;;;;7.80;3.57;;;3.90;83.00;;;;;;4976524;28;20316;-84
2021/12/09 00:34:27;;;;;;;10.63;3.33;;;3.80;84.70;;;;;;4974365;28;20257;-84
2021/12/09 00:36:59;;;;;;;4.87;3.50;;;3.80;86.90;;;;;;4977143;28;20254;-84
2021/12/09 00:39:25;;;;;;;9.23;3.30;;;3.80;87.50;;;;;;4974211;28;20468;-83
2021/12/09 00:41:51;;;;;;;3.70;2.80;;;3.80;88.60;;;;;;4974543;28;20532;-84
2021/12/09 00:44:16;;;;;;;3.40;3.10;;;3.90;90.00;;;;;;4973727;28;20488;-86
2021/12/09 00:46:42;;;;;;;3.60;3.13;;;3.80;89.50;;;;;;4979012;28;20254;-84
2021/12/09 00:49:09;;;;;;;3.77;2.90;;;3.80;89.40;;;;;;4990190;28;20236;-86
2021/12/09 00:51:35;;;;;;;3.80;2.83;;;3.80;89.50;;;;;;4975201;28;20226;-85
2021/12/09 00:54:01;;;;;;;3.87;2.40;;;3.70;89.40;;;;;;4973399;28;20519;-86
2021/12/09 00:56:27;;;;;;;12.00;3.23;;;3.70;89.50;;;;;;4975595;28;20461;-85
2021/12/09 00:58:55;;;;;;;3.33;2.70;;;3.80;90.30;;;;;;4974333;28;20966;-86
2021/12/09 01:01:22;;;;;;;2.97;2.50;;;3.80;90.00;;;;;;4977605;28;20233;-87
2021/12/09 01:03:48;;;;;;;3.53;2.60;;;3.80;90.20;;;;;;4977071;28;20547;-86
2021/12/09 01:06:14;;;;;;;4.27;2.40;;;3.80;90.50;;;;;;4978347;28;20914;-86
2021/12/09 01:08:41;;;;;;;2.73;2.37;;;3.80;90.00;;;;;;4976912;28;20234;-86
2021/12/09 01:11:07;;;;;;;7.87;2.83;;;3.80;90.00;;;;;;4978502;28;20546;-86
2021/12/09 01:13:33;;;;;;;4.20;2.70;;;3.80;90.10;;;;;;4976016;28;20484;-86
2021/12/09 01:15:58;;;;;;;2.87;2.47;;;3.80;90.00;;;;;;4978746;28;20240;-85
2021/12/09 01:18:24;;;;;;;8.30;3.57;;;3.80;88.50;;;;;;4975649;28;20231;-87
2021/12/09 01:20:50;;;;;;;3.97;3.13;;;3.70;85.90;;;;;;4978188;28;20560;-86
2021/12/09 01:23:17;;;;;;;4.17;3.20;;;3.60;86.30;;;;;;4975927;28;20232;-86
2021/12/09 01:25:43;;;;;;;4.80;2.73;;;3.70;87.60;;;;;;4978222;28;20457;-86
2021/12/09 01:28:21;;;;;;;4.50;3.10;;;3.70;89.00;;;;;;4976323;28;20452;-86
2021/12/09 01:30:49;;;;;;;4.30;3.17;;;3.70;90.30;;;;;;4978430;28;20472;-87
2021/12/09 01:33:15;;;;;;;5.70;3.43;;;3.80;91.00;;;;;;4979785;28;20488;-87
2021/12/09 01:35:47;;;;;;;5.70;2.87;;;3.80;90.90;;;;;;4979970;28;20453;-86
2021/12/09 01:38:14;;;;;;;3.10;2.80;;;3.90;91.20;;;;;;4979295;28;21262;-87
2021/12/09 01:40:40;;;;;;;5.75;3.35;;;3.90;90.70;;;;;;4977625;28;20421;-86
2021/12/09 01:43:06;;;;;;;6.93;3.60;;;3.90;91.30;;;;;;4980493;28;20592;-87
2021/12/09 01:45:32;;;;;;;3.57;3.30;;;3.90;90.60;;;;;;4979288;28;20453;-86
2021/12/09 01:47:58;;;;;;;3.47;3.00;;;3.90;90.40;;;;;;4979554;28;20488;-87
2021/12/09 01:50:25;;;;;;;7.23;3.50;;;3.90;90.30;;;;;;4976929;28;20265;-86
2021/12/09 01:52:51;;;;;;;4.70;3.77;;;3.90;90.90;;;;;;4979235;28;20464;-87
2021/12/09 01:55:18;;;;;;;9.43;3.70;;;3.90;90.80;;;;;;4976762;28;20451;-86
2021/12/09 01:57:50;;;;;;;4.30;3.90;;;3.90;91.30;;;;;;4979309;28;20221;-86
2021/12/09 02:00:21;;;;;;;4.47;4.10;;;3.90;90.70;;;;;;4976569;28;20456;-86
2021/12/09 02:02:47;;;;;;;5.90;4.00;;;3.90;90.60;;;;;;4979239;28;20445;-86
2021/12/09 02:05:13;;;;;;;6.50;4.13;;;3.90;90.10;;;;;;4975907;28;20609;-86
2021/12/09 02:07:39;;;;;;;8.50;4.03;;;3.80;90.50;;;;;;4977478;28;20491;-86
2021/12/09 02:10:08;;;;;;;4.77;4.37;;;3.80;90.30;;;;;;4975176;28;20305;-87
2021/12/09 02:12:34;;;;;;;5.30;3.93;;;3.90;90.30;;;;;;4977211;28;20968;-86
2021/12/09 02:15:01;;;;;;;5.20;3.63;;;3.90;90.30;;;;;;4975439;28;20956;-87
2021/12/09 02:17:31;;;;;;;4.47;4.03;;;3.90;90.60;;;;;;4977167;28;20457;-87
2021/12/09 02:19:59;;;;;;;5.50;4.13;;;3.90;90.60;;;;;;4976178;28;20449;-88
2021/12/09 02:22:27;;;;;;;4.87;4.37;;;3.90;91.30;;;;;;4977816;28;20817;-87
2021/12/09 02:24:54;;;;;;;5.87;4.40;;;4.00;91.80;;;;;;4976531;28;20522;-87
2021/12/09 02:27:23;;;;;;;5.23;4.73;;;4.00;91.80;;;;;;4976982;28;20449;-87
2021/12/09 02:29:50;;;;;;;8.53;4.70;;;4.00;92.00;;;;;;4976031;28;20862;-87
2021/12/09 02:32:16;;;;;;;8.13;5.73;;;4.10;92.00;;;;;;4976326;28;20488;-87
2021/12/09 02:34:42;;;;;;;9.03;6.33;;;4.10;91.90;;;;;;4976681;28;20461;-87
2021/12/09 02:37:10;;;;;;;8.00;5.93;;;4.10;91.70;;;;;;4976562;28;20287;-87
2021/12/09 02:39:36;;;;;;;10.57;6.10;;;4.20;92.20;;;;;;4980012;28;20744;-87
2021/12/09 02:42:03;;;;;;;11.73;6.80;;;4.20;92.20;;;;;;4976885;28;20475;-87
2021/12/09 02:44:28;;;;;;;8.20;6.30;;;4.20;91.70;;;;;;4978245;28;20229;-87
2021/12/09 02:46:56;;;;;;;7.50;6.50;;;4.20;90.80;;;;;;4977048;28;20544;-86
2021/12/09 02:49:26;;;;;;;11.63;6.40;;;4.20;89.50;;;;;;4977362;28;20232;-87
2021/12/09 02:51:53;;;;;;;9.93;7.00;;;4.20;90.50;;;;;;4976395;28;20461;-87
2021/12/09 02:54:21;;;;;;;8.43;6.80;;;4.20;90.90;;;;;;4977184;28;20480;-84
2021/12/09 02:56:49;;;;;;;10.73;6.60;;;4.20;90.60;;;;;;4973744;28;20457;-86
2021/12/09 02:59:15;;;;;;;7.50;5.93;;;4.20;90.40;;;;;;4977780;28;20917;-87
2021/12/09 03:01:53;;;;;;;8.67;5.50;;;4.20;90.90;;;;;;4979425;28;20487;-85
2021/12/09 03:04:19;;;;;;;7.23;6.03;;;4.30;91.00;;;;;;4976586;28;20746;-86
2021/12/09 03:06:45;;;;;;;9.80;5.27;;;4.20;90.40;;;;;;4975019;28;20544;-86
2021/12/09 03:09:16;;;;;;;11.90;5.50;;;4.20;90.10;;;;;;4976327;28;20237;-87
2021/12/09 03:11:44;;;;;;;8.13;5.87;;;4.30;90.30;;;;;;4974895;28;20540;-85
2021/12/09 03:14:11;;;;;;;7.70;6.13;;;4.20;88.00;;;;;;4976115;28;20463;-86
2021/12/09 03:16:38;;;;;;;17.83;6.40;;;4.20;88.10;;;;;;4975039;28;20449;-85
2021/12/09 03:19:08;;;;;;;10.50;6.30;;;4.20;87.40;;;;;;4976168;28;20457;-86
2021/12/09 03:21:38;;;;;;;24.97;7.90;;;4.20;87.20;;;;;;4975601;28;20484;-86
2021/12/09 03:24:07;;;;;;;7.40;6.13;;;4.30;87.50;;;;;;4974650;28;20879;-87
2021/12/09 03:26:38;;;;;;;8.33;6.23;;;4.20;88.40;;;;;;4976473;28;20821;-87
2021/12/09 03:29:09;;;;;;;5.80;5.27;;;4.30;86.70;;;;;;4975917;28;21718;-86
2021/12/09 03:31:41;;;;;;;8.30;6.10;;;4.20;86.40;;;;;;4976564;28;20465;-87
2021/12/09 03:34:07;;;;;;;5.87;5.17;;;4.20;85.90;;;;;;4974266;28;20449;-83
2021/12/09 03:36:33;;;;;;;7.20;6.50;;;4.20;86.70;;;;;;4972972;28;20449;-83
2021/12/09 03:39:02;;;;;;;7.50;5.00;;;4.20;85.90;;;;;;4970787;28;20526;-83
2021/12/09 03:41:28;;;;;;;9.30;6.13;;;4.20;86.00;;;;;;4971621;28;20507;-83
2021/12/09 03:43:54;;;;;;;10.50;6.53;;;4.20;85.10;;;;;;4971473;28;20877;-83
2021/12/09 03:46:20;;;;;;;9.40;5.90;;;4.20;86.40;;;;;;4972926;28;20229;-82
2021/12/09 03:48:47;;;;;;;10.20;6.30;;;4.20;85.40;;;;;;4971544;28;20449;-82
2021/12/09 03:51:12;;;;;;;14.10;5.83;;;4.10;85.00;;;;;;4970706;28;20457;-83
2021/12/09 03:53:38;;;;;;;7.53;6.87;;;4.20;84.60;;;;;;4971258;28;20650;-83
2021/12/09 03:56:04;;;;;;;5.97;5.47;;;4.20;86.40;;;;;;4973855;28;20237;-83
2021/12/09 03:58:30;;;;;;;9.17;6.53;;;4.20;84.80;;;;;;4970731;28;20468;-83
2021/12/09 04:00:56;;;;;;;7.70;6.50;;;4.20;85.30;;;;;;4971941;28;20461;-83
2021/12/09 04:03:22;;;;;;;7.47;6.77;;;4.10;86.10;;;;;;4970346;28;20248;-83
2021/12/09 04:05:49;;;;;;;7.43;6.30;;;4.20;85.30;;;;;;4973073;28;21011;-83
2021/12/09 04:08:17;;;;;;;7.50;6.47;;;4.20;84.80;;;;;;4971623;28;20500;-83
2021/12/09 04:10:43;;;;;;;8.33;6.33;;;4.20;85.60;;;;;;4973336;28;20527;-83
2021/12/09 04:13:09;;;;;;;10.00;7.00;;;4.20;86.40;;;;;;4970662;28;20452;-83
2021/12/09 04:15:35;;;;;;;7.23;5.57;;;4.20;85.50;;;;;;4972001;28;20528;-83
2021/12/09 04:18:02;;;;;;;10.43;6.00;;;4.20;83.00;;;;;;4971382;28;20880;-83
2021/12/09 04:20:28;;;;;;;9.93;6.90;;;4.20;83.10;;;;;;4973125;28;20577;-83
2021/12/09 04:22:54;;;;;;;10.43;6.10;;;4.20;81.00;;;;;;4971703;28;21730;-83
2021/12/09 04:25:22;;;;;;;7.73;5.37;;;4.10;83.50;;;;;;4973629;28;20464;-83
2021/12/09 04:27:50;;;;;;;7.77;5.90;;;4.20;84.10;;;;;;4971997;28;20949;-84
2021/12/09 04:30:17;;;;;;;8.60;6.20;;;4.20;82.80;;;;;;4972739;28;20455;-83
2021/12/09 04:32:44;;;;;;;7.07;6.37;;;4.10;83.10;;;;;;4972186;28;20824;-83
2021/12/09 04:35:11;;;;;;;7.33;6.23;;;4.20;84.60;;;;;;4972230;28;20453;-83
2021/12/09 04:37:38;;;;;;;6.90;6.27;;;4.10;84.60;;;;;;4988472;28;20583;-83
2021/12/09 04:40:07;;;;;;;11.20;6.50;;;4.00;84.10;;;;;;4977488;28;20452;-83
2021/12/09 04:42:32;;;;;;;6.97;6.20;;;4.10;85.10;;;;;;4976424;28;20460;-84
2021/12/09 04:44:58;;;;;;;6.77;6.07;;;4.10;86.30;;;;;;4976393;28;20449;-84
2021/12/09 04:47:24;;;;;;;10.80;6.30;;;4.00;86.20;;;;;;4976181;28;20233;-84
2021/12/09 04:49:49;;;;;;;8.00;5.80;;;4.00;84.10;;;;;;4976914;28;20233;-82
2021/12/09 04:52:15;;;;;;;9.50;6.90;;;4.10;84.40;;;;;;4976115;28;20222;-83
2021/12/09 04:54:41;;;;;;;6.27;5.23;;;4.10;82.70;;;;;;4978042;28;20229;-84
2021/12/09 04:57:11;;;;;;;7.10;5.90;;;4.10;83.20;;;;;;4977291;28;20453;-84
2021/12/09 04:59:37;;;;;;;6.50;4.47;;;4.10;82.20;;;;;;4977350;28;20457;-84
2021/12/09 05:02:08;;;;;;;7.53;5.57;;;4.20;84.10;;;;;;4977051;28;20460;-83
2021/12/09 05:04:34;;;;;;;8.73;5.50;;;4.20;84.60;;;;;;4978227;28;20457;-83
2021/12/09 05:06:59;;;;;;;5.97;5.40;;;4.20;83.60;;;;;;4979368;28;20457;-82
2021/12/09 05:09:25;;;;;;;6.90;4.77;;;4.20;85.90;;;;;;4978961;28;20452;-81
2021/12/09 05:11:51;;;;;;;5.17;4.50;;;4.20;84.70;;;;;;4977722;28;20240;-82
2021/12/09 05:14:19;;;;;;;7.53;4.67;;;4.20;84.50;;;;;;4978971;28;20221;-81
2021/12/09 05:16:46;;;;;;;6.87;5.30;;;4.20;83.30;;;;;;4979713;28;20226;-83
2021/12/09 05:19:12;;;;;;;4.87;4.30;;;4.20;83.60;;;;;;4976395;28;20453;-84
2021/12/09 05:21:39;;;;;;;4.90;4.40;;;4.20;82.40;;;;;;4978987;28;21011;-83
2021/12/09 05:24:10;;;;;;;5.53;4.20;;;4.20;83.30;;;;;;4977439;28;20457;-82
2021/12/09 05:26:45;;;;;;;6.67;4.17;;;4.20;84.60;;;;;;4966233;28;20449;-81
2021/12/09 05:29:11;;;;;;;9.10;4.97;;;4.30;84.40;;;;;;4958768;28;20531;-83
2021/12/09 05:34:22;;;;;;;9.10;5.53;;;4.20;84.60;;;;;;4970723;28;20459;-83
2021/12/09 05:36:48;;;;;;;7.43;4.50;;;4.20;83.30;;;;;;4978069;28;20461;-83
2021/12/09 05:39:14;;;;;;;7.40;4.60;;;4.20;83.60;;;;;;4981924;28;20280;-83
2021/12/09 05:41:41;;;;;;;4.80;3.30;;;4.20;81.40;;;;;;4980216;28;20461;-87
2021/12/09 05:44:09;;;;;;;5.00;4.10;;;4.20;81.20;;;;;;4982158;28;20461;-82
2021/12/09 05:46:37;;;;;;;8.37;4.20;;;4.20;81.50;;;;;;4978785;28;20472;-82
2021/12/09 05:49:03;;;;;;;11.20;4.10;;;4.10;83.10;;;;;;4981255;28;20575;-83
2021/12/09 05:51:29;;;;;;;6.97;4.30;;;4.20;83.70;;;;;;4980986;28;20499;-84
2021/12/09 05:53:55;;;;;;;6.63;4.10;;;4.20;83.80;;;;;;4984964;28;20460;-84
2021/12/09 05:56:22;;;;;;;3.90;3.23;;;4.20;83.60;;;;;;4985278;28;20225;-84
2021/12/09 05:58:47;;;;;;;4.77;4.30;;;4.20;81.70;;;;;;4982554;28;20986;-84
2021/12/09 06:01:14;;;;;;;4.67;4.03;;;4.10;80.90;;;;;;4984671;28;20465;-84
2021/12/09 06:03:40;;;;;;;7.50;4.00;;;4.20;81.80;;;;;;4982852;28;20222;-84
2021/12/09 06:06:06;;;;;;;4.50;3.60;;;4.20;81.50;;;;;;4981633;28;20864;-84
2021/12/09 06:08:35;;;;;;;4.00;3.50;;;4.20;83.20;;;;;;4982399;28;20529;-83
2021/12/09 06:11:02;;;;;;;7.50;3.77;;;4.10;82.40;;;;;;4982231;28;20878;-84
2021/12/09 06:13:30;;;;;;;7.50;3.63;;;4.10;80.70;;;;;;4981227;28;20445;-84
2021/12/09 06:15:56;;;;;;;6.10;3.70;;;4.10;82.10;;;;;;4981177;28;20816;-84
2021/12/09 06:18:22;;;;;;;6.33;3.97;;;4.00;80.40;;;;;;4981876;28;20476;-84
2021/12/09 06:20:47;;;;;;;6.97;4.70;;;4.10;81.30;;;;;;4982067;28;20232;-84
2021/12/09 06:23:13;;;;;;;8.70;5.70;;;4.10;81.60;;;;;;4981538;28;20313;-87
2021/12/09 06:25:39;;;;;;;7.27;4.03;;;4.10;81.50;;;;;;4981833;28;20275;-87
2021/12/09 06:28:05;;;;;;;4.23;3.57;;;4.10;81.90;;;;;;4981974;28;20560;-87
2021/12/09 06:30:31;;;;;;;5.60;3.90;;;4.10;80.80;;;;;;4981325;28;20552;-87
2021/12/09 06:32:57;;;;;;;5.33;4.40;;;4.10;80.60;;;;;;4981513;28;20261;-86
2021/12/09 06:35:25;;;;;;;6.10;4.27;;;4.10;78.80;;;;;;4981728;28;20476;-85
2021/12/09 06:37:51;;;;;;;11.80;5.20;;;4.10;82.00;;;;;;4982237;28;20233;-87
2021/12/09 06:40:19;;;;;;;7.30;3.80;;;4.10;81.50;;;;;;4982530;28;20523;-85
2021/12/09 06:42:46;;;;;;;5.53;4.10;;;4.00;80.90;;;;;;4983650;28;20217;-87
2021/12/09 06:45:13;;;;;;;3.87;3.33;;;4.10;81.50;;;;;;4981639;28;21022;-86
2021/12/09 06:47:40;;;;;;;4.60;3.57;;;4.10;80.60;;;;;;4959447;28;20447;-85
2021/12/09 06:50:11;;;;;;;4.97;3.60;;;4.00;79.10;;;;;;4960322;28;20461;-86
2021/12/09 06:52:37;;;;;;;7.17;4.20;;;4.10;80.80;;;;;;4962529;28;20489;-87
2021/12/09 06:55:09;;;;;;;4.60;4.07;;;4.10;79.70;;;;;;4978322;28;20501;-86
2021/12/09 06:57:35;;;;;;;5.40;3.83;;;4.00;79.30;;;;;;4977621;28;20608;-85
2021/12/09 07:00:01;;;;;;;6.53;4.40;;;4.00;79.50;;;;;;4960919;28;20883;-84
2021/12/09 07:02:26;;;;;;;4.00;3.60;;;4.00;80.60;;;;;;4960657;28;20496;-85
2021/12/09 07:04:52;;;;;;;5.50;4.07;;;4.00;77.00;;;;;;4976914;28;20442;-84
2021/12/09 07:07:18;;;;;;;4.73;3.77;;;4.00;76.60;;;;;;4960159;28;20227;-85
2021/12/09 07:09:43;;;;;;;5.33;3.80;;;4.00;77.10;;;;;;4959641;28;20234;-84
2021/12/09 07:12:10;;;;;;;5.13;4.13;;;4.00;78.90;;;;;;4960599;28;20655;-85
2021/12/09 07:14:35;;;;;;;6.70;4.00;;;4.00;76.70;;;;;;4960357;28;20600;-86
2021/12/09 07:17:01;;;;;;;4.27;3.47;;;4.00;76.00;;;;;;4960358;28;21281;-85
2021/12/09 07:19:27;;;;;;;5.83;3.90;;;4.00;76.20;;;;;;4959227;28;20241;-84
2021/12/09 07:21:53;;;;;;;4.90;4.50;;;4.00;76.60;;;;;;4959888;28;20241;-83
2021/12/09 07:24:18;;;;;;;5.33;4.10;;;4.00;78.70;;;;;;4959247;28;20454;-83
2021/12/09 07:26:45;;;;;;;5.00;3.97;;;4.00;79.10;;;;;;4959788;28;20350;-84
2021/12/09 07:29:11;;;;;;;5.20;3.17;;;4.00;79.80;;;;;;4958573;28;20241;-84
2021/12/09 07:31:37;;;;;;;4.90;3.87;;;4.00;78.10;;;;;;4959531;28;20855;-83
2021/12/09 07:34:03;;;;;;;7.70;4.07;;;4.10;80.20;;;;;;4960172;28;20512;-84
2021/12/09 07:36:29;;;;;;;6.47;4.37;;;4.10;80.50;;;;;;4959354;28;20456;-84
2021/12/09 07:38:54;;;;;;;4.73;3.73;;;4.10;79.20;;;;;;4959263;28;20512;-84
2021/12/09 07:41:21;;;;;;;5.60;4.47;;;4.20;82.50;;;;;;4962012;28;20565;-83
2021/12/09 07:43:49;;;;;;;5.87;3.60;;;4.10;80.50;;;;;;4960264;28;20230;-83
2021/12/09 07:46:16;;;;;;;3.83;3.53;;;4.10;76.70;;;;;;4959596;28;20484;-83
2021/12/09 07:48:42;;;;;;;5.13;3.83;;;4.10;74.40;;;;;;4959645;28;20540;-84
2021/12/09 07:51:08;;;;;;;5.90;4.40;;;4.10;76.20;;;;;;4958560;28;20561;-84
2021/12/09 07:53:34;;;;;;;5.03;4.33;;;4.10;76.20;;;;;;4960001;28;20230;-84
2021/12/09 07:55:59;;;;;;;4.97;3.90;;;4.10;76.30;;;;;;4959859;28;20240;-84
2021/12/09 07:58:25;;;;;;;9.30;4.47;;;4.10;75.60;;;;;;4959698;28;20878;-84
2021/12/09 08:00:51;;;;;;;5.13;4.00;;;4.10;74.20;;;;;;4959857;28;20236;-84
2021/12/09 08:03:17;;;;;;;7.80;4.70;;;4.10;74.90;;;;;;4959943;28;20496;-84
2021/12/09 08:05:45;;;;;;;5.27;4.10;;;4.10;72.60;;;;;;4959795;28;20298;-84
2021/12/09 08:08:11;;;;;;;7.20;4.57;;;4.00;72.90;;;;;;4958727;28;20454;-83
2021/12/09 08:10:37;;;;;;;4.70;4.00;;;4.10;74.30;;;;;;4961369;28;21075;-84
2021/12/09 08:13:05;;;;;;;6.27;4.57;;;4.00;71.60;;;;;;4961147;28;20454;-83
2021/12/09 08:15:35;;;;;;;6.43;4.33;;;4.10;74.60;;;;;;4962527;28;20724;-83
2021/12/09 08:18:15;;;;;;;5.70;4.80;;;4.10;73.80;;;;;;4963070;28;20450;-84
2021/12/09 08:20:41;;;;;;;5.87;4.43;;;4.10;72.40;;;;;;4963222;28;20559;-84
2021/12/09 08:23:06;;;;;;;7.37;4.90;;;4.20;74.90;;;;;;4963420;28;21020;-85
2021/12/09 08:25:32;;;;;;;7.17;4.03;;;4.20;74.50;;;;;;4962094;28;20481;-83
2021/12/09 08:27:58;;;;;;;6.60;4.47;;;4.10;75.20;;;;;;4962778;28;20638;-84
2021/12/09 08:30:25;;;;;;;7.87;4.60;;;4.20;76.80;;;;;;4962511;28;20559;-84
2021/12/09 08:32:52;;;;;;;4.33;4.03;;;4.30;74.20;;;;;;4962825;28;20434;-83
2021/12/09 08:35:19;;;;;;;5.00;4.40;;;4.30;77.90;;;;;;4962392;28;20512;-85
2021/12/09 08:37:45;;;;;;;7.53;4.70;;;4.30;77.40;;;;;;4964086;28;20484;-84
2021/12/09 08:40:12;;;;;;;5.87;4.67;;;4.30;75.90;;;;;;4963856;28;20453;-83
2021/12/09 08:42:38;;;;;;;8.37;5.17;;;4.30;76.60;;;;;;4963295;28;20469;-83
2021/12/09 08:45:08;;;;;;;7.20;4.00;;;4.40;78.10;;;;;;4963224;28;20434;-83
2021/12/09 08:47:35;;;;;;;6.60;5.13;;;4.40;75.60;;;;;;4963077;28;20634;-82
2021/12/09 08:50:01;;;;;;;7.23;6.53;;;4.40;76.70;;;;;;4963313;28;20853;-82
2021/12/09 08:52:27;;;;;;;6.50;5.03;;;4.40;76.80;;;;;;4963402;28;20469;-84
2021/12/09 08:54:53;;;;;;;7.30;5.10;;;4.50;75.80;;;;;;4964145;28;20950;-83
2021/12/09 08:57:20;;;;;;;6.73;6.13;;;4.50;73.50;;;;;;4963653;28;20557;-83
2021/12/09 08:59:45;;;;;;;4.73;4.30;;;4.60;74.80;;;;;;4964068;28;20301;-84
2021/12/09 09:02:12;;;;;;;8.67;4.77;;;4.50;75.00;;;;;;4963029;28;20540;-83
2021/12/09 09:04:38;;;;;;;10.83;5.50;;;4.50;76.50;;;;;;4964098;28;20458;-85
2021/12/09 09:07:06;;;;;;;6.70;4.90;;;4.60;73.40;;;;;;4962343;28;20469;-84
2021/12/09 09:09:34;;;;;;;10.07;5.20;;;4.60;73.00;;;;;;4971165;28;20261;-83
2021/12/09 09:12:02;;;;;;;6.03;5.50;;;4.50;73.40;;;;;;4982525;28;20492;-83
2021/12/09 09:14:27;;;;;;;6.10;4.97;;;4.60;71.70;;;;;;4982526;28;20536;-85
2021/12/09 09:16:53;;;;;;;6.53;5.00;;;4.60;72.30;;;;;;4981992;28;20544;-83
2021/12/09 09:19:19;;;;;;;6.53;5.30;;;4.60;72.30;;;;;;4983215;28;20260;-84
2021/12/09 09:21:45;;;;;;;5.87;5.27;;;4.60;72.60;;;;;;4982086;28;20221;-82
2021/12/09 09:24:10;;;;;;;6.13;5.13;;;4.60;70.90;;;;;;4981509;28;20256;-82
2021/12/09 09:26:38;;;;;;;5.27;4.40;;;4.60;71.20;;;;;;4982514;28;20249;-84
2021/12/09 09:29:03;;;;;;;7.20;4.20;;;4.60;69.40;;;;;;4982929;28;20225;-84
2021/12/09 09:31:31;;;;;;;9.17;5.00;;;4.60;70.30;;;;;;4976708;28;20466;-84
2021/12/09 09:34:00;;;;;;;5.47;4.40;;;4.70;73.80;;;;;;4954704;28;20219;-83
2021/12/09 09:36:26;;;;;;;5.87;5.20;;;4.70;71.50;;;;;;4961295;28;20474;-83
2021/12/09 09:38:56;;;;;;;5.97;4.63;;;4.60;72.30;;;;;;4960697;28;20463;-85
2021/12/09 09:41:31;;;;;;;5.80;4.90;;;4.70;69.30;;;;;;4973370;28;20855;-84
2021/12/09 09:43:59;;;;;;;5.90;5.37;;;4.60;69.00;;;;;;4962952;28;20461;-83
2021/12/09 09:46:28;;;;;;;6.20;4.97;;;4.60;70.10;;;;;;4963511;28;20549;-83
2021/12/09 09:48:56;;;;;;;6.10;5.50;;;4.70;70.50;;;;;;4962965;28;20446;-83
2021/12/09 09:51:25;;;;;;;5.30;4.90;;;4.70;69.50;;;;;;4962339;28;20532;-83
2021/12/09 09:53:51;;;;;;;6.13;5.60;;;4.70;71.70;;;;;;4962676;28;20484;-83
2021/12/09 09:56:22;;;;;;;5.67;5.10;;;4.70;69.20;;;;;;4962715;28;20549;-82
2021/12/09 09:58:52;;;;;;;5.70;5.30;;;4.80;69.90;;;;;;4961462;28;20520;-84
2021/12/09 10:01:18;;;;;;;4.97;4.47;;;4.80;71.90;;;;;;4963040;28;20520;-84
2021/12/09 10:03:47;;;;;;;6.63;5.40;;;4.80;73.80;;;;;;4963949;28;20450;-83
2021/12/09 10:06:17;;;;;;;7.17;5.13;;;4.80;74.60;;;;;;4963262;28;20486;-83
2021/12/09 10:08:44;;;;;;;9.60;4.83;;;4.90;71.30;;;;;;4963221;28;20454;-84
2021/12/09 10:11:10;;;;;;;5.57;5.07;;;4.90;73.90;;;;;;4964165;28;20461;-84
2021/12/09 10:13:39;;;;;;;6.67;4.93;;;5.00;71.80;;;;;;4962646;28;20449;-86
2021/12/09 10:16:19;;;;;;;4.50;4.20;;;4.90;72.60;;;;;;4965718;28;20455;-86
2021/12/09 10:18:47;;;;;;;4.53;4.17;;;5.00;71.30;;;;;;4963503;28;20864;-85
2021/12/09 10:21:23;;;;;;;6.63;4.20;;;5.00;70.00;;;;;;4962615;28;20884;-86
2021/12/09 10:24:03;;;;;;;6.30;4.37;;;5.00;69.80;;;;;;4964855;28;20544;-85
2021/12/09 10:26:40;;;;;;;5.30;4.93;;;5.00;67.60;;;;;;4964229;28;20482;-85
2021/12/09 10:29:36;;;;;;;6.30;4.17;;;5.10;70.40;;;;;;4961876;28;20450;-85
2021/12/09 10:32:13;;;;;;;6.77;5.10;;;5.10;72.70;;;;;;4962291;28;20473;-86
2021/12/09 10:34:45;;;;;;;6.60;5.10;;;5.20;71.30;;;;;;4962410;28;20449;-86
2021/12/09 10:37:12;;;;;;;5.40;4.60;;;5.20;71.10;;;;;;4962992;28;20462;-84
2021/12/09 10:39:46;;;;;;;5.87;4.33;;;5.20;72.50;;;;;;4962715;28;20462;-85
2021/12/09 10:42:26;;;;;;;4.67;3.93;;;5.20;70.10;;;;;;4961764;28;20469;-86
2021/12/09 10:44:59;;;;;;;4.90;4.50;;;5.30;70.80;;;;;;4961101;28;20476;-85
2021/12/09 10:50:34;;;;;;;6.20;4.30;;;5.30;74.20;;;;;;4963858;28;20458;-86
2021/12/09 10:53:17;;;;;;;7.70;4.83;;;5.30;70.90;;;;;;4962463;28;21017;-86
2021/12/09 10:55:45;;;;;;;8.43;5.10;;;5.30;69.90;;;;;;4962091;28;20448;-86
2021/12/09 10:58:13;;;;;;;4.30;4.00;;;5.30;68.80;;;;;;4961701;28;20438;-86
2021/12/09 11:00:55;;;;;;;4.80;4.40;;;5.30;69.20;;;;;;4962200;28;20541;-86
2021/12/09 11:03:25;;;;;;;5.10;4.37;;;5.40;69.70;;;;;;4961039;28;20446;-85
2021/12/09 11:06:01;;;;;;;5.37;4.27;;;5.40;69.60;;;;;;4962605;28;20442;-84
2021/12/09 11:08:31;;;;;;;6.53;3.63;;;5.40;69.40;;;;;;4963014;28;20434;-85
2021/12/09 11:11:03;;;;;;;4.80;4.20;;;5.50;68.60;;;;;;4963955;28;20458;-86
2021/12/09 11:13:42;;;;;;;4.67;4.23;;;5.40;68.70;;;;;;4963941;28;20888;-86
2021/12/09 11:16:08;;;;;;;10.73;4.70;;;5.50;71.40;;;;;;4962533;28;20536;-86
2021/12/09 11:18:45;;;;;;;4.10;3.70;;;5.50;70.00;;;;;;4961646;28;20516;-84
2021/12/09 11:21:14;;;;;;;4.50;4.10;;;5.50;70.40;;;;;;4961541;28;20457;-85
2021/12/09 11:24:00;;;;;;;4.87;3.70;;;5.50;65.20;;;;;;4961024;28;20489;-85
2021/12/09 11:26:33;;;;;;;5.00;4.13;;;5.50;66.10;;;;;;4961138;28;21005;-84
2021/12/09 11:29:05;;;;;;;7.63;7.03;;;5.50;68.00;;;;;;4962511;28;20460;-85
2021/12/09 11:31:34;;;;;;;5.83;5.33;;;5.50;66.40;;;;;;4961365;28;20521;-85
2021/12/09 11:34:09;;;;;;;3.90;3.70;;;5.60;69.20;;;;;;4961183;28;20478;-85
2021/12/09 11:36:49;;;;;;;4.07;3.67;;;5.70;69.60;;;;;;4961224;28;20469;-86
2021/12/09 11:39:23;;;;;;;6.50;4.30;;;5.60;66.70;;;;;;4961185;28;20461;-86
2021/12/09 11:41:49;;;;;;;12.07;4.90;;;5.70;67.90;;;;;;4961497;28;20480;-86
2021/12/09 11:44:16;;;;;;;4.20;3.80;;;5.70;68.30;;;;;;4962033;28;20495;-87
2021/12/09 11:46:45;;;;;;;6.00;3.83;;;5.70;70.10;;;;;;4963804;28;20991;-85
2021/12/09 11:49:12;;;;;;;4.53;4.00;;;5.70;67.80;;;;;;4961333;28;20476;-86
2021/12/09 11:51:38;;;;;;;4.13;3.63;;;5.80;68.40;;;;;;4961451;28;20486;-86
2021/12/09 11:54:07;;;;;;;3.97;3.40;;;5.80;65.20;;;;;;4961501;28;20468;-85
2021/12/09 11:57:37;;;;;;;5.37;3.90;;;5.80;64.40;;;;;;4962095;28;20504;-86
2021/12/09 12:11:32;;;;;;;3.90;3.37;;;5.90;66.00;;;;;;4962061;28;20500;-86
2021/12/09 12:14:12;;;;;;;6.73;3.17;;;5.80;65.20;;;;;;4959977;28;20769;-86
2021/12/09 12:20:29;;;;;;;3.67;3.33;;;5.90;64.60;;;;;;4932929;28;20475;-85
2021/12/09 12:28:19;;;;;;;9.80;4.03;;;5.90;63.10;;;;;;4961636;28;20218;-85
2021/12/09 12:31:01;;;;;;;5.33;3.93;;;6.10;68.60;;;;;;4960081;28;20477;-84
2021/12/09 12:34:35;;;;;;;4.53;3.90;;;6.10;66.90;;;;;;4961648;28;20465;-85
2021/12/09 12:42:34;;;;;;;5.30;3.03;;;5.90;57.40;;;;;;4962986;28;20978;-86
2021/12/09 12:48:28;;;;;;;4.60;3.40;;;5.70;63.20;;;;;;4960737;28;20892;-85
2021/12/09 12:54:14;;;;;;;6.23;3.43;;;5.70;61.00;;;;;;4957808;28;20828;-84
2021/12/09 12:56:43;;;;;;;5.20;3.17;;;5.70;61.70;;;;;;4959747;28;20472;-84
2021/12/09 12:59:11;;;;;;;4.93;2.93;;;5.70;63.20;;;;;;4962321;28;20453;-85
2021/12/09 13:02:01;;;;;;;7.90;3.70;;;5.80;62.20;;;;;;4963463;28;20450;-84
2021/12/09 13:10:32;;;;;;;5.30;3.43;;;5.90;57.50;;;;;;4957145;28;20521;-85
2021/12/09 13:13:36;;;;;;;6.60;3.43;;;5.90;60.10;;;;;;4960231;28;20451;-85
2021/12/09 13:16:14;;;;;;;2.97;2.43;;;5.90;57.40;;;;;;4959574;28;20446;-84
2021/12/09 13:18:46;;;;;;;7.50;3.53;;;6.00;58.10;;;;;;4959728;28;20447;-85
2021/12/09 13:21:41;;;;;;;4.67;2.60;;;6.00;56.60;;;;;;4960301;28;20452;-85
2021/12/09 13:24:24;;;;;;;3.20;2.83;;;6.00;55.00;;;;;;4959724;28;20472;-84
2021/12/09 13:27:29;;;;;;;6.33;3.70;;;6.00;56.00;;;;;;4960806;28;20458;-85
2021/12/09 13:30:28;;;;;;;5.80;3.30;;;6.00;58.60;;;;;;4945987;28;20449;-85
2021/12/09 13:35:31;;;;;;;4.77;3.43;;;5.90;56.40;;;;;;4926810;28;20526;-85
2021/12/09 13:46:33;;;;;;;9.17;3.40;;;5.60;57.00;;;;;;4920256;28;20462;-84
2021/12/09 13:49:06;;;;;;;6.27;3.17;;;5.60;57.40;;;;;;4942767;28;20451;-84
2021/12/09 13:54:02;;;;;;;9.80;4.03;;;5.60;56.60;;;;;;4942422;28;20460;-87
2021/12/09 13:54:54;;;;;;;4.77;3.80;;;5.60;55.90;;;;;;4927221;28;20951;-84
2021/12/09 13:57:39;;;;;;;3.57;3.00;;;5.70;60.20;;;;;;4928400;28;20467;-84
2021/12/09 14:00:32;;;;;;;8.57;3.30;;;5.70;58.30;;;;;;4940513;28;20820;-84